Time;durP1;ratioP1;P1;durP2;ratioP2;P2;SDS_P1;SDS_P2;PMS_P1;PMS_P2;Temp;Humidity;BMP_temperature;BMP_pressure;BME280_temperature;BME280_humidity;BME280_pressure;Samples;Min_cycle;Max_cycle;Signal;HPM_P1;HPM_P2
2023/02/14 00:00:48;;;;;;;25.67;8.82;;;3.50;99.90;;;;;;10021725;28;20407;-62
2023/02/14 00:05:39;;;;;;;22.65;8.80;;;3.60;99.90;;;;;;10019169;28;20033;-61
2023/02/14 00:10:29;;;;;;;21.35;8.90;;;3.80;99.90;;;;;;10061549;28;20208;-61
2023/02/14 00:15:23;;;;;;;26.02;10.10;;;3.80;99.90;;;;;;10060333;28;20108;-63
2023/02/14 00:20:15;;;;;;;25.30;9.70;;;3.90;99.90;;;;;;10061239;28;20060;-60
2023/02/14 00:25:07;;;;;;;30.55;9.93;;;4.00;99.90;;;;;;10061061;28;20565;-60
2023/02/14 00:30:00;;;;;;;25.33;9.70;;;4.00;99.90;;;;;;10060485;28;20072;-61
2023/02/14 00:34:51;;;;;;;20.42;8.30;;;4.00;99.90;;;;;;10039150;28;20420;-60
2023/02/14 00:39:42;;;;;;;23.77;9.80;;;3.90;99.90;;;;;;10039576;28;20087;-62
2023/02/14 00:44:32;;;;;;;19.10;8.77;;;3.70;99.90;;;;;;10047361;28;20530;-60
2023/02/14 00:49:23;;;;;;;17.63;8.25;;;3.80;99.90;;;;;;10048879;28;20479;-60
2023/02/14 00:54:14;;;;;;;22.17;9.63;;;4.00;99.90;;;;;;10053393;28;20022;-60
2023/02/14 00:59:04;;;;;;;28.98;11.10;;;3.90;99.90;;;;;;10019987;28;20022;-60
2023/02/14 01:03:55;;;;;;;24.10;8.98;;;3.80;99.90;;;;;;10031452;28;20140;-60
2023/02/14 01:08:46;;;;;;;21.10;9.25;;;3.90;99.90;;;;;;10016937;28;20038;-60
2023/02/14 01:13:37;;;;;;;23.83;8.60;;;3.70;99.90;;;;;;10018533;28;20268;-60
2023/02/14 01:18:27;;;;;;;15.68;7.10;;;3.70;99.90;;;;;;9989211;28;20077;-61
2023/02/14 01:23:18;;;;;;;19.67;10.10;;;3.50;99.90;;;;;;9980300;28;20105;-64
2023/02/14 01:28:09;;;;;;;19.40;9.73;;;3.50;99.90;;;;;;9980074;28;20450;-60
2023/02/14 01:32:59;;;;;;;19.10;8.95;;;3.70;99.90;;;;;;10057290;28;20022;-61
2023/02/14 01:37:50;;;;;;;24.30;8.55;;;3.80;99.90;;;;;;10033550;28;20028;-60
2023/02/14 01:42:40;;;;;;;20.67;8.35;;;3.80;99.90;;;;;;10022644;28;20048;-60
2023/02/14 01:47:35;;;;;;;22.90;10.80;;;3.90;99.90;;;;;;10058483;28;20038;-61
2023/02/14 01:52:42;;;;;;;21.00;9.75;;;3.90;99.90;;;;;;10059077;28;20025;-62
2023/02/14 01:57:39;;;;;;;20.92;9.32;;;4.00;99.90;;;;;;10058455;28;20511;-61
2023/02/14 02:02:29;;;;;;;23.45;10.55;;;4.00;99.90;;;;;;10021321;28;20366;-61
2023/02/14 02:07:25;;;;;;;23.20;8.65;;;3.90;99.90;;;;;;10018714;28;20046;-61
2023/02/14 02:12:15;;;;;;;21.27;8.27;;;3.90;99.90;;;;;;10030651;28;20029;-61
2023/02/14 02:17:25;;;;;;;19.70;9.27;;;4.00;99.90;;;;;;10056686;28;20061;-61
2023/02/14 02:22:56;;;;;;;22.15;10.10;;;4.10;99.90;;;;;;10040234;28;20040;-60
2023/02/14 02:28:10;;;;;;;21.65;9.82;;;4.00;99.90;;;;;;10003462;28;20129;-60
2023/02/14 02:33:17;;;;;;;25.02;8.20;;;3.90;99.90;;;;;;10053098;28;20044;-61
2023/02/14 02:38:23;;;;;;;22.33;8.48;;;4.00;99.90;;;;;;10035398;28;20120;-61
2023/02/14 02:43:25;;;;;;;14.98;8.35;;;3.80;99.90;;;;;;10065275;28;20491;-63
2023/02/14 02:48:20;;;;;;;17.98;8.38;;;3.80;99.90;;;;;;10065090;28;20041;-61
2023/02/14 02:53:32;;;;;;;21.58;9.38;;;3.90;99.90;;;;;;10064404;28;20460;-62
2023/02/14 02:58:28;;;;;;;23.63;9.68;;;3.90;99.90;;;;;;10061150;28;20058;-63
2023/02/14 03:08:29;;;;;;;19.67;8.68;;;3.90;99.90;;;;;;10039934;28;20358;-65
2023/02/14 03:14:21;;;;;;;18.80;8.95;;;4.00;99.90;;;;;;10063902;28;20032;-62
2023/02/14 03:24:32;;;;;;;22.52;8.93;;;3.80;99.90;;;;;;10034933;28;20081;-60
2023/02/14 03:30:01;;;;;;;22.58;8.63;;;3.80;99.90;;;;;;10028897;28;20031;-61
2023/02/14 03:35:11;;;;;;;15.65;6.55;;;3.80;99.90;;;;;;10019828;28;20096;-60
2023/02/14 03:40:17;;;;;;;22.58;9.20;;;3.80;99.90;;;;;;10055292;28;20046;-60
2023/02/14 03:45:12;;;;;;;24.73;8.40;;;3.70;99.90;;;;;;10062746;28;20037;-60
2023/02/14 03:50:09;;;;;;;18.90;8.40;;;3.80;99.90;;;;;;10062492;28;20526;-61
2023/02/14 03:55:03;;;;;;;15.85;8.15;;;3.90;99.90;;;;;;10064273;28;20033;-60
2023/02/14 03:59:55;;;;;;;17.27;7.90;;;3.90;99.90;;;;;;10046635;28;20021;-61
2023/02/14 04:04:48;;;;;;;19.35;8.82;;;4.00;99.90;;;;;;10034845;28;20504;-61
2023/02/14 04:09:39;;;;;;;18.13;8.38;;;3.90;99.90;;;;;;9982098;28;20397;-60
2023/02/14 04:14:30;;;;;;;22.85;9.30;;;3.80;99.90;;;;;;9982837;28;20493;-60
2023/02/14 04:19:23;;;;;;;23.63;8.82;;;3.70;99.90;;;;;;10010814;28;20388;-61
2023/02/14 04:24:14;;;;;;;23.20;8.88;;;3.80;99.90;;;;;;9988155;28;20046;-60
2023/02/14 04:29:04;;;;;;;19.88;10.00;;;3.80;99.90;;;;;;9993275;28;20041;-61
2023/02/14 04:33:55;;;;;;;24.83;9.45;;;3.80;99.90;;;;;;10060368;28;20091;-60
2023/02/14 04:38:46;;;;;;;22.02;8.52;;;3.70;99.90;;;;;;10048949;28;20026;-61
2023/02/14 04:43:37;;;;;;;23.52;8.45;;;3.70;99.90;;;;;;10060438;28;20025;-61
2023/02/14 04:48:27;;;;;;;17.13;7.97;;;3.70;99.90;;;;;;10060036;28;20029;-61
2023/02/14 04:53:18;;;;;;;18.20;7.13;;;3.70;99.90;;;;;;10059783;28;20033;-61
2023/02/14 04:58:09;;;;;;;14.65;6.70;;;3.60;99.90;;;;;;10059431;28;20512;-60
2023/02/14 05:03:00;;;;;;;16.48;6.32;;;3.50;99.90;;;;;;10027206;28;20014;-61
2023/02/14 05:07:51;;;;;;;17.23;7.53;;;3.50;99.90;;;;;;10020369;28;20041;-61
2023/02/14 05:12:41;;;;;;;15.85;7.63;;;3.60;99.90;;;;;;10019824;28;20173;-62
2023/02/14 05:17:32;;;;;;;15.07;6.53;;;3.50;99.90;;;;;;10023592;28;20026;-61
2023/02/14 05:22:23;;;;;;;16.98;7.47;;;3.50;99.90;;;;;;10019643;28;20154;-64
2023/02/14 05:27:14;;;;;;;12.88;6.47;;;3.40;99.90;;;;;;10018943;28;20041;-60
2023/02/14 05:32:04;;;;;;;15.95;6.43;;;3.40;99.90;;;;;;10058502;28;20483;-60
2023/02/14 05:36:56;;;;;;;18.02;6.35;;;3.30;99.90;;;;;;10041154;28;20025;-60
2023/02/14 05:41:47;;;;;;;15.00;6.45;;;3.40;99.90;;;;;;10023100;28;20017;-61
2023/02/14 05:46:37;;;;;;;16.67;6.47;;;3.40;99.90;;;;;;10058219;28;20029;-61
2023/02/14 05:51:28;;;;;;;16.15;6.65;;;3.30;99.90;;;;;;10058479;28;20080;-64
2023/02/14 05:56:19;;;;;;;14.05;6.22;;;3.20;99.90;;;;;;10040710;28;20018;-60
2023/02/14 06:01:10;;;;;;;10.52;5.65;;;3.10;99.90;;;;;;10040975;28;20101;-61
2023/02/14 06:06:00;;;;;;;13.10;5.78;;;3.20;99.90;;;;;;10007629;28;20038;-61
2023/02/14 06:10:51;;;;;;;12.43;5.88;;;3.10;99.90;;;;;;10014089;28;20029;-62
2023/02/14 06:15:42;;;;;;;11.77;5.38;;;3.10;99.90;;;;;;9984113;28;20105;-64
2023/02/14 06:20:33;;;;;;;13.05;5.88;;;3.10;99.90;;;;;;10020745;28;20084;-64
2023/02/14 06:25:24;;;;;;;15.05;5.93;;;3.10;99.90;;;;;;10040993;28;20084;-62
2023/02/14 06:30:17;;;;;;;14.18;6.38;;;3.10;99.90;;;;;;10011985;28;20126;-63
2023/02/14 06:35:08;;;;;;;14.18;6.00;;;3.10;99.90;;;;;;10042800;28;20058;-61
2023/02/14 06:39:59;;;;;;;15.95;6.68;;;3.10;99.90;;;;;;10035980;28;20037;-65
2023/02/14 06:44:50;;;;;;;12.85;5.47;;;3.20;99.90;;;;;;10065089;28;20034;-66
2023/02/14 06:49:41;;;;;;;16.80;6.85;;;3.20;99.90;;;;;;10065085;28;20033;-62
2023/02/14 06:54:32;;;;;;;13.80;6.22;;;3.20;99.90;;;;;;10065154;28;20458;-61
2023/02/14 06:59:23;;;;;;;17.00;6.43;;;3.20;99.90;;;;;;10028211;28;20030;-61
2023/02/14 07:04:14;;;;;;;15.45;6.13;;;3.20;99.90;;;;;;10007178;28;20487;-63
2023/02/14 07:09:06;;;;;;;15.73;6.60;;;3.20;99.90;;;;;;10027541;28;20099;-61
2023/02/14 07:13:56;;;;;;;11.18;5.65;;;3.30;99.90;;;;;;9994615;28;20034;-62
2023/02/14 07:18:48;;;;;;;17.65;7.10;;;3.30;99.90;;;;;;10005446;28;20025;-61
2023/02/14 07:23:38;;;;;;;13.82;5.93;;;3.20;99.90;;;;;;10025510;28;20558;-63
2023/02/14 07:28:29;;;;;;;11.98;6.45;;;3.20;99.90;;;;;;10023794;28;20057;-62
2023/02/14 07:33:20;;;;;;;14.57;5.80;;;3.20;99.90;;;;;;9999344;28;20576;-63
2023/02/14 07:38:11;;;;;;;11.27;5.50;;;3.30;99.90;;;;;;10032202;28;20021;-62
2023/02/14 07:43:02;;;;;;;10.07;4.70;;;3.30;99.90;;;;;;10022212;28;20018;-61
2023/02/14 07:47:54;;;;;;;16.05;7.18;;;3.20;99.90;;;;;;10021698;28;20119;-61
2023/02/14 07:52:45;;;;;;;11.88;5.90;;;3.20;99.90;;;;;;10023450;28;20041;-61
2023/02/14 07:57:35;;;;;;;11.95;6.38;;;3.30;99.90;;;;;;10022212;28;20030;-61
2023/02/14 08:02:26;;;;;;;10.48;5.90;;;3.30;99.90;;;;;;10004877;28;20025;-59
2023/02/14 08:07:17;;;;;;;15.93;7.03;;;3.20;99.90;;;;;;10013565;28;20427;-62
2023/02/14 08:17:18;;;;;;;14.13;6.47;;;3.20;99.90;;;;;;10019195;28;20053;-60
2023/02/14 08:22:09;;;;;;;16.70;6.85;;;3.20;99.90;;;;;;10003335;28;20540;-59
2023/02/14 08:27:00;;;;;;;16.80;7.10;;;3.10;99.90;;;;;;10020727;28;20038;-60
2023/02/14 08:31:51;;;;;;;13.90;6.78;;;3.30;99.90;;;;;;10046601;28;20460;-59
2023/02/14 08:36:42;;;;;;;14.30;7.07;;;3.60;99.90;;;;;;10048131;28;20494;-61
2023/02/14 08:41:33;;;;;;;15.40;6.30;;;3.60;99.90;;;;;;10060665;28;20029;-63
2023/02/14 08:46:24;;;;;;;18.00;6.60;;;3.50;99.90;;;;;;10034459;28;20037;-60
2023/02/14 08:51:15;;;;;;;16.88;7.20;;;3.70;99.90;;;;;;10020212;28;20037;-62
2023/02/14 08:56:13;;;;;;;17.70;8.00;;;3.60;99.90;;;;;;10019377;28;20026;-62
2023/02/14 09:01:08;;;;;;;16.85;7.22;;;3.30;99.90;;;;;;10016997;28;20037;-62
2023/02/14 09:06:04;;;;;;;18.27;7.47;;;3.60;99.90;;;;;;9985599;28;20163;-61
2023/02/14 09:10:54;;;;;;;17.88;7.63;;;3.60;99.90;;;;;;10019164;28;20022;-62
2023/02/14 09:15:45;;;;;;;15.82;8.75;;;3.60;99.90;;;;;;10021505;28;20096;-63
2023/02/14 09:20:36;;;;;;;14.23;6.68;;;3.70;99.90;;;;;;10018936;28;20109;-64
2023/02/14 09:25:26;;;;;;;23.90;8.55;;;3.70;99.90;;;;;;10019272;28;20076;-62
2023/02/14 09:30:17;;;;;;;19.25;8.43;;;3.70;99.90;;;;;;10051704;28;20057;-63
2023/02/14 09:40:19;;;;;;;18.40;7.97;;;3.80;99.90;;;;;;10020049;28;20037;-60
2023/02/14 09:45:18;;;;;;;15.60;7.70;;;4.00;99.90;;;;;;10057763;28;20037;-62
2023/02/14 09:50:35;;;;;;;20.23;8.55;;;3.90;99.90;;;;;;10023148;28;20270;-62
2023/02/14 09:55:42;;;;;;;20.50;7.82;;;4.00;99.90;;;;;;10018107;28;20030;-63
2023/02/14 10:00:32;;;;;;;17.35;7.72;;;4.00;99.90;;;;;;9986846;28;20251;-63
2023/02/14 10:05:36;;;;;;;18.85;8.52;;;4.00;99.90;;;;;;10017488;28;20030;-63
2023/02/14 10:10:35;;;;;;;18.48;7.72;;;4.10;99.90;;;;;;10016365;28;20045;-62
2023/02/14 10:15:39;;;;;;;13.55;9.52;;;3.90;99.90;;;;;;10012245;28;20018;-62
2023/02/14 10:20:50;;;;;;;15.35;6.85;;;3.90;99.90;;;;;;10003396;28;20030;-62
2023/02/14 10:25:51;;;;;;;19.83;8.68;;;4.10;99.90;;;;;;10013777;28;20052;-60
2023/02/14 10:31:00;;;;;;;17.02;7.95;;;4.10;99.90;;;;;;10015337;28;20277;-60
2023/02/14 10:36:12;;;;;;;15.93;7.35;;;4.20;99.90;;;;;;10017000;28;20032;-61
2023/02/14 10:41:02;;;;;;;21.88;9.00;;;4.40;99.90;;;;;;10024611;28;20115;-62
2023/02/14 10:46:12;;;;;;;18.23;8.40;;;4.30;99.90;;;;;;10016952;28;20377;-61
2023/02/14 10:51:32;;;;;;;18.23;9.20;;;4.10;99.90;;;;;;10017275;28;20034;-64
2023/02/14 10:56:31;;;;;;;18.48;8.50;;;4.10;99.90;;;;;;10007655;28;20038;-62
2023/02/14 11:01:23;;;;;;;20.25;8.63;;;4.30;99.90;;;;;;10021455;28;20201;-59
2023/02/14 11:06:15;;;;;;;21.55;9.50;;;4.30;99.90;;;;;;10024402;28;20026;-65
2023/02/14 11:11:30;;;;;;;22.20;10.05;;;4.40;99.90;;;;;;10022805;28;20041;-61
2023/02/14 11:16:36;;;;;;;23.58;10.80;;;4.30;99.90;;;;;;10003074;28;20164;-60
2023/02/14 11:21:37;;;;;;;21.15;10.25;;;4.40;99.90;;;;;;10024845;28;20049;-60
2023/02/14 11:26:31;;;;;;;22.10;10.10;;;4.50;99.90;;;;;;10023672;28;20054;-62
2023/02/14 11:31:32;;;;;;;23.00;10.77;;;4.60;99.90;;;;;;10025995;28;20025;-62
2023/02/14 11:36:22;;;;;;;17.38;8.20;;;4.50;99.90;;;;;;10024418;28;20026;-59
2023/02/14 11:41:15;;;;;;;17.13;8.98;;;4.70;99.90;;;;;;10023452;28;20025;-60
2023/02/14 11:46:26;;;;;;;18.83;8.10;;;4.70;99.90;;;;;;10023554;28;20030;-63
2023/02/14 11:51:16;;;;;;;20.83;8.82;;;4.70;99.90;;;;;;10008960;28;20441;-60
2023/02/14 11:56:07;;;;;;;21.00;10.40;;;4.70;99.90;;;;;;10024509;28;20030;-59
2023/02/14 12:01:00;;;;;;;19.60;10.45;;;4.90;99.90;;;;;;10021083;28;20041;-60
2023/02/14 12:05:56;;;;;;;20.55;10.35;;;5.00;99.90;;;;;;9981151;28;20585;-60
2023/02/14 12:11:17;;;;;;;23.57;11.43;;;4.90;99.90;;;;;;9981859;28;20121;-63
2023/02/14 12:16:20;;;;;;;17.52;9.07;;;5.00;99.90;;;;;;10017676;28;20030;-61
2023/02/14 12:21:33;;;;;;;24.27;10.77;;;5.00;99.90;;;;;;10024981;28;20068;-60
2023/02/14 12:26:32;;;;;;;24.15;10.77;;;5.00;99.90;;;;;;10015721;28;20046;-60
2023/02/14 12:31:24;;;;;;;26.67;12.55;;;4.90;99.90;;;;;;10031297;28;20508;-62
2023/02/14 12:36:33;;;;;;;24.20;10.45;;;4.90;99.90;;;;;;10019815;28;20061;-60
2023/02/14 12:41:52;;;;;;;25.10;10.43;;;4.80;99.90;;;;;;10027889;28;20032;-62
2023/02/14 12:47:01;;;;;;;22.73;11.52;;;5.10;99.90;;;;;;10018602;28;20033;-60
2023/02/14 12:52:46;;;;;;;24.33;11.30;;;4.90;99.90;;;;;;10018593;28;20022;-61
2023/02/14 12:58:01;;;;;;;22.45;11.52;;;4.70;99.90;;;;;;9964438;28;20479;-59
2023/02/14 13:02:51;;;;;;;28.67;12.40;;;4.90;99.90;;;;;;10018092;28;20116;-62
2023/02/14 13:08:15;;;;;;;27.90;11.95;;;5.00;99.90;;;;;;10016747;28;20133;-62
2023/02/14 13:13:23;;;;;;;27.00;12.05;;;5.10;99.90;;;;;;10000650;28;20470;-60
2023/02/14 13:18:58;;;;;;;25.42;11.38;;;5.00;99.90;;;;;;10017721;28;20034;-62
2023/02/14 13:23:54;;;;;;;22.10;11.38;;;5.10;99.90;;;;;;9968075;28;20042;-60
2023/02/14 13:29:09;;;;;;;28.15;11.88;;;5.10;99.90;;;;;;10018104;28;20060;-60
2023/02/14 13:34:06;;;;;;;28.83;14.32;;;5.20;99.90;;;;;;10009717;28;20536;-61
2023/02/14 13:38:59;;;;;;;33.63;13.27;;;5.20;99.90;;;;;;10026812;28;20065;-60
2023/02/14 13:44:04;;;;;;;25.77;11.68;;;5.20;99.90;;;;;;10016203;28;20037;-61
2023/02/14 13:48:58;;;;;;;32.42;12.18;;;5.20;99.90;;;;;;10016701;28;20409;-60
2023/02/14 13:53:50;;;;;;;30.58;13.82;;;5.10;99.90;;;;;;10015751;28;20022;-60
2023/02/14 13:59:00;;;;;;;36.75;14.68;;;4.90;99.90;;;;;;10016466;28;20504;-60
2023/02/14 14:03:57;;;;;;;30.75;13.70;;;5.10;99.90;;;;;;10016358;28;20573;-61
2023/02/14 14:08:55;;;;;;;38.42;14.68;;;5.00;99.90;;;;;;10016005;28;20046;-59
2023/02/14 14:14:02;;;;;;;29.52;13.27;;;5.00;99.90;;;;;;9996715;28;20114;-61
2023/02/14 14:19:06;;;;;;;32.08;13.70;;;5.00;99.90;;;;;;9996898;28;20121;-56
2023/02/14 14:24:21;;;;;;;34.25;14.80;;;5.10;99.90;;;;;;9977501;28;20042;-57
2023/02/14 14:29:38;;;;;;;30.07;12.73;;;5.00;99.90;;;;;;9976676;28;20054;-61
2023/02/14 14:34:28;;;;;;;32.35;13.00;;;4.80;99.90;;;;;;9982825;28;20365;-59
2023/02/14 14:39:31;;;;;;;23.98;11.88;;;4.90;99.90;;;;;;9993814;28;20101;-60
2023/02/14 14:44:23;;;;;;;27.42;11.52;;;4.70;99.90;;;;;;9970459;28;20629;-60
2023/02/14 14:49:15;;;;;;;24.33;12.27;;;4.40;99.90;;;;;;9989017;28;20480;-62
2023/02/14 14:54:16;;;;;;;25.27;12.55;;;4.50;99.90;;;;;;9989243;28;20037;-61
2023/02/14 14:59:21;;;;;;;29.52;12.02;;;4.50;99.90;;;;;;9983988;28;20026;-62
2023/02/14 15:04:31;;;;;;;35.92;13.60;;;4.60;99.90;;;;;;9989099;28;20365;-56
2023/02/14 15:09:32;;;;;;;30.08;12.38;;;4.60;99.90;;;;;;9987761;28;20034;-59
2023/02/14 15:14:25;;;;;;;27.33;12.77;;;4.70;99.90;;;;;;10006339;28;20098;-62
2023/02/14 15:19:40;;;;;;;24.33;11.65;;;4.70;99.90;;;;;;10021927;28;20030;-60
2023/02/14 15:24:33;;;;;;;24.40;10.05;;;4.80;99.90;;;;;;10011772;28;20072;-59
2023/02/14 15:29:27;;;;;;;35.47;10.73;;;4.70;99.90;;;;;;10016025;28;20085;-59
2023/02/14 15:34:34;;;;;;;24.38;11.18;;;4.70;99.90;;;;;;10020570;28;20448;-59
2023/02/14 15:39:32;;;;;;;23.85;10.57;;;4.60;99.90;;;;;;10029777;28;20040;-59
2023/02/14 15:44:25;;;;;;;28.15;11.73;;;4.50;99.90;;;;;;10019919;28;20045;-58
2023/02/14 15:49:20;;;;;;;28.85;12.05;;;4.40;99.90;;;;;;10011154;28;20533;-60
2023/02/14 15:54:35;;;;;;;24.00;10.93;;;4.30;99.90;;;;;;9983829;28;20022;-59
2023/02/14 15:59:29;;;;;;;21.33;9.70;;;4.50;99.90;;;;;;9982818;28;20022;-60
2023/02/14 16:04:26;;;;;;;25.33;11.93;;;4.40;99.90;;;;;;9967997;28;20563;-60
2023/02/14 16:09:26;;;;;;;27.95;11.35;;;4.50;99.90;;;;;;9984899;28;20069;-60
2023/02/14 16:14:33;;;;;;;27.02;11.73;;;4.50;99.90;;;;;;9965356;28;20029;-59
2023/02/14 16:19:42;;;;;;;24.90;10.15;;;4.50;99.90;;;;;;9985976;28;20049;-63
2023/02/14 16:24:33;;;;;;;26.98;11.30;;;4.50;99.90;;;;;;9980492;28;20042;-62
2023/02/14 16:29:24;;;;;;;25.40;10.23;;;4.40;99.90;;;;;;9987696;28;20117;-62
2023/02/14 16:34:15;;;;;;;28.38;10.07;;;4.30;99.90;;;;;;9988022;28;20077;-63
2023/02/14 16:39:15;;;;;;;30.35;10.63;;;4.40;99.90;;;;;;9985554;28;20026;-63
2023/02/14 16:44:05;;;;;;;32.00;12.05;;;4.20;99.90;;;;;;9984601;28;20023;-61
2023/02/14 16:48:56;;;;;;;29.08;11.85;;;4.10;99.90;;;;;;9986956;28;20497;-61
2023/02/14 16:53:48;;;;;;;27.50;11.30;;;4.10;99.90;;;;;;9984312;28;20025;-60
2023/02/14 16:58:39;;;;;;;25.92;10.93;;;4.00;99.90;;;;;;10014259;28;20526;-62
2023/02/14 17:03:30;;;;;;;27.50;11.77;;;4.00;99.90;;;;;;10012969;28;20056;-60
2023/02/14 17:08:20;;;;;;;33.17;10.77;;;3.90;99.90;;;;;;10015264;28;20036;-61
2023/02/14 17:13:12;;;;;;;29.15;11.52;;;3.90;99.90;;;;;;10015171;28;20064;-64
2023/02/14 17:18:09;;;;;;;26.77;10.82;;;3.80;99.90;;;;;;10015210;28;20038;-64
2023/02/14 17:23:00;;;;;;;22.95;10.05;;;3.70;99.90;;;;;;10014784;28;20493;-63
2023/02/14 17:27:51;;;;;;;34.33;12.48;;;3.60;99.90;;;;;;10015709;28;20034;-63
2023/02/14 17:32:42;;;;;;;29.90;11.55;;;3.70;99.90;;;;;;10015169;28;20523;-65
2023/02/14 17:37:33;;;;;;;33.20;13.40;;;3.70;99.90;;;;;;10001540;28;20091;-62
2023/02/14 17:42:23;;;;;;;37.00;14.48;;;3.80;99.90;;;;;;9995192;28;20031;-60
2023/02/14 17:47:17;;;;;;;34.70;13.02;;;3.90;99.90;;;;;;9995856;28;20038;-61
2023/02/14 17:52:07;;;;;;;33.88;12.82;;;3.80;99.90;;;;;;10009191;28;20084;-64
2023/02/14 17:56:58;;;;;;;29.38;12.68;;;3.70;99.90;;;;;;10007586;28;20390;-62
2023/02/14 18:01:49;;;;;;;34.53;11.75;;;3.60;99.90;;;;;;10006702;28;20014;-70
2023/02/14 18:06:41;;;;;;;30.73;10.88;;;3.60;99.90;;;;;;10011074;28;20068;-68
2023/02/14 18:11:32;;;;;;;22.58;9.40;;;3.40;99.90;;;;;;10014557;28;20053;-70
2023/02/14 18:16:23;;;;;;;31.70;10.35;;;3.30;99.90;;;;;;9989608;28;20030;-71
2023/02/14 18:21:17;;;;;;;30.63;11.65;;;3.10;99.90;;;;;;10022477;28;20455;-69
2023/02/14 18:26:14;;;;;;;26.08;11.20;;;3.30;99.90;;;;;;10013072;28;20462;-71
2023/02/14 18:31:12;;;;;;;23.52;11.00;;;3.20;99.90;;;;;;10009598;28;20033;-70
2023/02/14 18:36:06;;;;;;;38.42;13.00;;;3.20;99.90;;;;;;9992572;28;20034;-67
2023/02/14 18:41:03;;;;;;;32.40;13.32;;;3.30;99.90;;;;;;10000791;28;20026;-70
2023/02/14 18:45:54;;;;;;;32.97;12.50;;;3.40;99.90;;;;;;10010080;28;20641;-64
2023/02/14 18:50:44;;;;;;;29.52;12.48;;;3.40;99.90;;;;;;9990987;28;20045;-63
2023/02/14 18:55:36;;;;;;;34.40;11.73;;;3.50;99.90;;;;;;10011061;28;20428;-65
2023/02/14 19:00:31;;;;;;;27.95;10.55;;;3.40;99.90;;;;;;10003823;28;20125;-66
2023/02/14 19:05:21;;;;;;;31.67;12.15;;;3.30;99.90;;;;;;10017475;28;20091;-71
2023/02/14 19:10:12;;;;;;;34.75;12.40;;;3.20;99.90;;;;;;10014762;28;20101;-66
2023/02/14 19:15:04;;;;;;;24.15;10.32;;;3.10;99.90;;;;;;10017849;28;20023;-65
2023/02/14 19:19:55;;;;;;;24.70;11.20;;;3.10;99.90;;;;;;9995572;28;20034;-65
2023/02/14 19:24:47;;;;;;;27.42;12.07;;;2.80;99.90;;;;;;10013668;28;20066;-66
2023/02/14 19:29:37;;;;;;;30.73;11.32;;;2.80;99.90;;;;;;9997512;28;20050;-69
2023/02/14 19:34:29;;;;;;;24.30;10.80;;;2.90;99.90;;;;;;10016073;28;20026;-65
2023/02/14 19:39:21;;;;;;;26.17;9.82;;;3.10;99.90;;;;;;10015762;28;20028;-66
2023/02/14 19:44:14;;;;;;;25.83;10.35;;;3.20;99.90;;;;;;10001416;28;20026;-68
2023/02/14 19:49:04;;;;;;;25.77;8.93;;;3.20;99.90;;;;;;9994114;28;20046;-67
2023/02/14 19:53:56;;;;;;;28.90;10.85;;;3.30;99.90;;;;;;9989971;28;20026;-65
2023/02/14 19:58:48;;;;;;;21.77;9.70;;;3.40;99.90;;;;;;9994282;28;20118;-65
2023/02/14 20:03:39;;;;;;;21.98;9.63;;;3.40;99.90;;;;;;10008913;28;20227;-65
2023/02/14 20:08:30;;;;;;;28.20;10.18;;;3.20;99.90;;;;;;10016990;28;20158;-63
2023/02/14 20:13:20;;;;;;;25.15;9.77;;;3.20;99.90;;;;;;10012575;28;20520;-63
2023/02/14 20:18:11;;;;;;;33.35;11.65;;;3.20;99.90;;;;;;10009349;28;20553;-63
2023/02/14 20:23:02;;;;;;;25.13;10.77;;;3.20;99.90;;;;;;10001018;28;20046;-65
2023/02/14 20:27:53;;;;;;;28.75;11.25;;;2.90;99.90;;;;;;10009600;28;20636;-64
2023/02/14 20:32:44;;;;;;;20.52;8.45;;;2.90;99.90;;;;;;10018599;28;20117;-63
2023/02/14 20:37:35;;;;;;;20.13;8.93;;;3.00;99.90;;;;;;10017790;28;20567;-61
2023/02/14 20:42:25;;;;;;;23.38;8.88;;;3.20;99.90;;;;;;10016500;28;20026;-63
2023/02/14 20:47:16;;;;;;;26.80;10.80;;;3.10;99.90;;;;;;10018855;28;20196;-61
2023/02/14 20:52:07;;;;;;;22.92;8.52;;;2.80;99.90;;;;;;10018282;28;20041;-60
2023/02/14 20:56:58;;;;;;;25.15;8.63;;;2.90;99.90;;;;;;10000647;28;20500;-63
2023/02/14 21:01:49;;;;;;;26.13;9.07;;;3.10;99.90;;;;;;10007836;28;20385;-63
2023/02/14 21:06:39;;;;;;;24.00;8.25;;;3.00;99.90;;;;;;10014511;28;20113;-66
2023/02/14 21:11:30;;;;;;;18.42;8.20;;;3.10;99.90;;;;;;10009997;28;20485;-63
2023/02/14 21:16:28;;;;;;;20.67;7.35;;;3.00;99.90;;;;;;10021540;28;20313;-65
2023/02/14 21:21:23;;;;;;;23.33;8.52;;;3.10;99.90;;;;;;10024038;28;20030;-70
2023/02/14 21:26:14;;;;;;;21.25;8.65;;;3.20;99.90;;;;;;10029557;22;20046;-70
2023/02/14 21:31:07;;;;;;;19.63;8.15;;;3.30;99.90;;;;;;10017968;28;20025;-70
2023/02/14 21:36:14;;;;;;;21.08;7.82;;;3.30;99.90;;;;;;10017602;28;20030;-69
2023/02/14 21:41:27;;;;;;;21.10;8.23;;;3.20;99.90;;;;;;10015103;28;20416;-69
2023/02/14 21:46:25;;;;;;;18.27;8.15;;;3.10;99.90;;;;;;10018161;28;20032;-71
2023/02/14 21:51:16;;;;;;;20.73;8.57;;;3.10;99.90;;;;;;10002193;28;20028;-69
2023/02/14 21:56:10;;;;;;;21.90;8.55;;;3.10;99.90;;;;;;10018853;28;20026;-69
2023/02/14 22:01:00;;;;;;;26.88;8.27;;;3.20;99.90;;;;;;9997383;28;20427;-69
2023/02/14 22:05:51;;;;;;;18.38;8.15;;;3.20;99.90;;;;;;10017194;28;20049;-69
2023/02/14 22:10:42;;;;;;;23.38;9.10;;;3.30;99.90;;;;;;10018946;28;20346;-69
2023/02/14 22:15:33;;;;;;;24.00;9.10;;;3.20;99.90;;;;;;10005352;28;20037;-70
2023/02/14 22:20:23;;;;;;;22.17;8.73;;;3.30;99.90;;;;;;10016269;28;20041;-69
2023/02/14 22:25:14;;;;;;;25.45;8.73;;;3.10;99.90;;;;;;10020334;28;20469;-69
2023/02/14 22:30:07;;;;;;;19.52;8.75;;;3.20;99.90;;;;;;10019033;28;20033;-68
2023/02/14 22:34:57;;;;;;;20.35;9.13;;;3.20;99.90;;;;;;10000979;28;20169;-70
2023/02/14 22:39:48;;;;;;;24.08;9.07;;;3.20;99.90;;;;;;9999409;28;20576;-69
2023/02/14 22:44:39;;;;;;;24.95;8.57;;;3.20;99.90;;;;;;10018971;28;20033;-69
2023/02/14 22:49:30;;;;;;;18.23;8.25;;;3.10;99.90;;;;;;10018280;28;20121;-70
2023/02/14 22:54:20;;;;;;;23.33;8.40;;;3.20;99.90;;;;;;10002650;28;20388;-70
2023/02/14 22:59:26;;;;;;;20.42;10.20;;;3.20;99.90;;;;;;10025715;28;20425;-69
2023/02/14 23:04:23;;;;;;;21.80;7.60;;;3.30;99.90;;;;;;10001505;28;20018;-71
2023/02/14 23:09:14;;;;;;;22.20;7.47;;;3.30;99.90;;;;;;10007360;28;20036;-70
2023/02/14 23:24:29;;;;;;;17.33;7.47;;;3.20;99.90;;;;;;10029622;28;20111;-69
2023/02/14 23:29:20;;;;;;;17.90;9.15;;;3.20;99.90;;;;;;10024873;28;20041;-69
2023/02/14 23:34:11;;;;;;;25.23;8.98;;;3.20;99.90;;;;;;10024112;28;20032;-68
2023/02/14 23:39:02;;;;;;;16.08;7.13;;;3.00;99.90;;;;;;10023298;28;20022;-69
2023/02/14 23:43:52;;;;;;;17.40;7.65;;;2.90;99.90;;;;;;10022850;28;20022;-69
2023/02/14 23:48:43;;;;;;;16.55;7.10;;;2.90;99.90;;;;;;10022865;28;20030;-69
2023/02/14 23:53:34;;;;;;;19.27;7.15;;;2.90;99.90;;;;;;10022417;28;20025;-70
2023/02/14 23:58:24;;;;;;;17.38;7.68;;;3.00;99.90;;;;;;10022616;28;20488;-71
